createdAt,value
2018-10-02T00:02:03.071Z,97.10
2018-10-02T00:04:31.261Z,97.20
2018-10-02T00:06:59.399Z,97.20
2018-10-02T00:09:27.523Z,97.20
2018-10-02T00:12:01.109Z,97.30
2018-10-02T00:14:30.314Z,97.30
2018-10-02T00:16:58.586Z,97.30
2018-10-02T00:19:27.050Z,97.40
2018-10-02T00:21:55.178Z,97.30
2018-10-02T00:24:23.295Z,97.30
2018-10-02T00:26:51.448Z,97.40
2018-10-02T00:29:20.544Z,97.50
2018-10-02T00:31:48.800Z,97.50
2018-10-02T00:34:16.926Z,97.60
2018-10-02T00:36:45.130Z,97.60
2018-10-02T00:39:13.279Z,97.60
2018-10-02T00:41:41.449Z,97.70
2018-10-02T00:44:09.603Z,97.70
2018-10-02T00:46:37.769Z,97.80
2018-10-02T00:49:06.413Z,97.80
2018-10-02T00:51:34.620Z,97.80
2018-10-02T00:54:02.863Z,97.90
2018-10-02T00:56:31.208Z,97.90
2018-10-02T00:58:59.403Z,98.00
2018-10-02T01:01:27.597Z,98.00
2018-10-02T01:03:57.000Z,98.10
2018-10-02T01:06:25.240Z,98.00
2018-10-02T01:08:53.399Z,98.20
2018-10-02T01:11:21.565Z,98.20
2018-10-02T01:13:49.725Z,98.20
2018-10-02T01:16:17.890Z,98.20
2018-10-02T01:18:46.060Z,98.20
2018-10-02T01:21:14.231Z,98.20
2018-10-02T01:23:42.416Z,98.20
2018-10-02T01:26:10.638Z,98.30
2018-10-02T01:28:38.860Z,98.30
2018-10-02T01:31:07.060Z,98.30
2018-10-02T01:33:35.250Z,98.40
2018-10-02T01:36:03.423Z,98.50
2018-10-02T01:38:31.658Z,98.50
2018-10-02T01:40:59.838Z,98.40
2018-10-02T01:43:27.994Z,98.40
2018-10-02T01:45:57.424Z,98.40
2018-10-02T01:48:25.690Z,98.40
2018-10-02T01:50:54.322Z,98.50
2018-10-02T01:53:22.475Z,98.50
2018-10-02T01:55:50.568Z,98.50
2018-10-02T01:58:18.762Z,98.50
2018-10-02T02:00:46.882Z,98.50
2018-10-02T02:03:15.468Z,98.50
2018-10-02T02:05:43.635Z,98.40
2018-10-02T02:08:11.884Z,98.40
2018-10-02T02:10:40.021Z,98.40
2018-10-02T02:13:08.287Z,98.40
2018-10-02T02:15:36.628Z,98.40
2018-10-02T02:18:05.133Z,98.40
2018-10-02T02:20:33.289Z,98.50
2018-10-02T02:23:01.441Z,98.50
2018-10-02T02:25:30.047Z,98.50
2018-10-02T02:27:59.204Z,98.50
2018-10-02T02:30:27.326Z,98.60
2018-10-02T02:32:55.560Z,98.60
2018-10-02T02:35:23.754Z,98.50
2018-10-02T02:37:51.876Z,98.60
2018-10-02T02:40:19.991Z,98.60
2018-10-02T02:42:48.215Z,98.70
2018-10-02T02:45:16.333Z,98.70
2018-10-02T02:47:49.887Z,98.70
2018-10-02T02:50:23.496Z,98.80
2018-10-02T02:52:57.085Z,98.80
2018-10-02T02:55:25.716Z,98.80
2018-10-02T02:57:53.878Z,98.80
2018-10-02T03:00:22.091Z,98.70
2018-10-02T03:02:50.257Z,98.80
2018-10-02T03:05:18.477Z,98.80
2018-10-02T03:07:46.647Z,99.00
2018-10-02T03:10:14.791Z,99.00
2018-10-02T03:12:42.974Z,99.00
2018-10-02T03:15:11.114Z,99.10
2018-10-02T03:17:40.457Z,99.00
2018-10-02T03:20:08.583Z,99.10
2018-10-02T03:22:37.634Z,99.10
2018-10-02T03:25:05.828Z,99.20
2018-10-02T03:27:35.585Z,99.20
2018-10-02T03:30:04.765Z,99.20
2018-10-02T03:32:32.891Z,99.20
2018-10-02T03:35:01.169Z,99.20
2018-10-02T03:37:29.292Z,99.20
2018-10-02T03:39:57.799Z,99.20
2018-10-02T03:42:27.097Z,99.20
2018-10-02T03:44:55.306Z,99.30
2018-10-02T03:47:23.487Z,99.30
2018-10-02T03:49:52.625Z,99.30
2018-10-02T03:52:20.806Z,99.40
2018-10-02T03:54:48.992Z,99.40
2018-10-02T03:57:17.153Z,99.40
2018-10-02T03:59:45.307Z,99.50
2018-10-02T04:02:13.454Z,99.50
2018-10-02T04:04:42.163Z,99.80
2018-10-02T04:07:10.277Z,99.60
2018-10-02T04:09:38.782Z,99.70
2018-10-02T04:12:06.926Z,99.70
2018-10-02T04:14:35.062Z,99.70
2018-10-02T04:17:03.604Z,99.80
2018-10-02T04:19:31.811Z,99.80
2018-10-02T04:21:59.914Z,99.80
2018-10-02T04:24:28.117Z,99.90
2018-10-02T04:26:56.261Z,99.90
2018-10-02T04:29:24.423Z,99.90
2018-10-02T04:31:52.595Z,99.90
2018-10-02T04:34:20.712Z,99.90
2018-10-02T04:36:48.892Z,99.90
2018-10-02T04:39:17.077Z,99.90
2018-10-02T04:41:45.710Z,99.90
2018-10-02T04:44:13.849Z,99.90
2018-10-02T04:46:42.066Z,99.90
2018-10-02T04:49:10.532Z,99.90
2018-10-02T04:51:38.707Z,99.90
2018-10-02T04:54:06.841Z,99.90
2018-10-02T04:56:34.968Z,99.90
2018-10-02T04:59:03.627Z,99.90
2018-10-02T05:01:32.396Z,99.90
2018-10-02T05:04:00.925Z,99.90
2018-10-02T05:06:29.271Z,99.90
2018-10-02T05:08:57.421Z,99.90
2018-10-02T05:11:25.536Z,99.90
2018-10-02T05:13:53.935Z,99.90
2018-10-02T05:16:22.102Z,99.90
2018-10-02T05:18:50.240Z,99.90
2018-10-02T05:21:18.422Z,99.90
2018-10-02T05:23:46.554Z,99.90
2018-10-02T05:26:14.711Z,99.90
2018-10-02T05:28:42.845Z,99.80
2018-10-02T05:31:11.027Z,99.80
2018-10-02T05:33:39.505Z,99.80
2018-10-02T05:36:07.699Z,99.80
2018-10-02T05:38:36.232Z,99.70
2018-10-02T05:41:04.615Z,99.60
2018-10-02T05:43:33.156Z,99.60
2018-10-02T05:46:01.606Z,99.70
2018-10-02T05:48:29.794Z,99.60
2018-10-02T05:50:57.947Z,99.60
2018-10-02T05:53:26.080Z,99.50
2018-10-02T05:55:54.284Z,99.40
2018-10-02T05:58:22.598Z,99.40
2018-10-02T06:00:50.695Z,99.40
2018-10-02T06:03:18.839Z,99.10
2018-10-02T06:05:46.979Z,99.10
2018-10-02T06:08:15.155Z,99.20
2018-10-02T06:10:43.329Z,98.80
2018-10-02T06:13:11.499Z,98.80
2018-10-02T06:15:39.689Z,98.70
2018-10-02T06:18:08.126Z,98.60
2018-10-02T06:20:36.251Z,98.40
2018-10-02T06:23:04.367Z,98.40
2018-10-02T06:25:32.519Z,98.30
2018-10-02T06:28:00.718Z,98.00
2018-10-02T06:30:29.098Z,97.70
2018-10-02T06:32:57.735Z,97.50
2018-10-02T06:35:25.925Z,97.00
2018-10-02T06:37:54.091Z,96.80
2018-10-02T06:40:23.709Z,96.50
2018-10-02T06:42:51.920Z,96.10
2018-10-02T06:45:23.817Z,95.60
2018-10-02T06:47:52.129Z,95.40
2018-10-02T06:50:20.398Z,94.90
2018-10-02T06:52:48.679Z,94.50
2018-10-02T06:55:16.794Z,94.00
2018-10-02T06:57:44.945Z,93.70
2018-10-02T07:00:14.042Z,93.30
2018-10-02T07:02:42.371Z,93.00
2018-10-02T07:05:10.487Z,92.60
2018-10-02T07:07:38.677Z,92.30
2018-10-02T07:10:07.486Z,92.20
2018-10-02T07:12:36.497Z,92.00
2018-10-02T07:15:04.665Z,92.00
2018-10-02T07:17:32.944Z,91.70
2018-10-02T07:20:01.311Z,91.40
2018-10-02T07:22:29.484Z,90.90
2018-10-02T07:24:57.652Z,90.80
2018-10-02T07:27:25.933Z,91.20
2018-10-02T07:29:54.402Z,91.50
2018-10-02T07:32:23.230Z,91.30
2018-10-02T07:34:51.376Z,91.40
2018-10-02T07:37:19.648Z,91.40
2018-10-02T07:39:47.844Z,91.40
2018-10-02T07:42:16.023Z,91.30
2018-10-02T07:44:44.285Z,91.30
2018-10-02T07:47:13.403Z,91.40
2018-10-02T07:49:41.573Z,91.70
2018-10-02T07:52:09.718Z,91.20
2018-10-02T07:54:37.836Z,91.00
2018-10-02T07:57:06.030Z,90.80
2018-10-02T07:59:35.683Z,90.60
2018-10-02T08:02:03.804Z,90.70
2018-10-02T08:04:31.973Z,90.70
2018-10-02T08:07:00.133Z,90.80
2018-10-02T08:09:28.259Z,90.90
2018-10-02T08:11:56.427Z,90.60
2018-10-02T08:14:24.607Z,90.00
2018-10-02T08:16:52.793Z,89.10
2018-10-02T08:19:21.082Z,88.30
2018-10-02T08:21:49.247Z,87.80
2018-10-02T08:24:18.136Z,87.10
2018-10-02T08:26:46.281Z,86.50
2018-10-02T08:29:14.473Z,86.30
2018-10-02T08:31:42.579Z,85.90
2018-10-02T08:34:10.728Z,85.90
2018-10-02T08:36:38.958Z,85.60
2018-10-02T08:39:08.576Z,84.70
2018-10-02T08:41:37.303Z,84.00
2018-10-02T08:44:05.474Z,83.50
2018-10-02T08:46:33.665Z,84.00
2018-10-02T08:49:01.826Z,82.80
2018-10-02T08:51:30.479Z,82.60
2018-10-02T08:53:58.665Z,82.70
2018-10-02T08:56:26.947Z,82.50
2018-10-02T08:58:55.152Z,82.00
2018-10-02T09:01:23.301Z,81.60
2018-10-02T09:03:51.507Z,80.40
2018-10-02T09:06:19.607Z,79.80
2018-10-02T09:08:47.735Z,79.10
2018-10-02T09:11:17.091Z,78.80
2018-10-02T09:13:45.259Z,78.80
2018-10-02T09:16:13.540Z,78.90
2018-10-02T09:18:41.646Z,78.60
2018-10-02T09:21:09.881Z,78.60
2018-10-02T09:23:38.025Z,78.80
2018-10-02T09:26:06.166Z,77.30
2018-10-02T09:28:34.347Z,77.00
2018-10-02T09:31:08.084Z,76.90
2018-10-02T09:33:41.555Z,76.60
2018-10-02T09:36:15.206Z,75.90
2018-10-02T09:38:48.809Z,75.50
2018-10-02T09:41:22.405Z,74.70
2018-10-02T09:43:52.618Z,73.60
2018-10-02T09:46:21.403Z,72.90
2018-10-02T09:48:49.561Z,73.10
2018-10-02T09:51:17.652Z,73.50
2018-10-02T09:53:45.905Z,72.80
2018-10-02T09:56:14.014Z,72.60
2018-10-02T09:58:42.230Z,73.00
2018-10-02T10:01:15.870Z,72.90
2018-10-02T10:03:44.602Z,72.70
2018-10-02T10:06:14.015Z,72.50
2018-10-02T10:08:42.133Z,71.90
2018-10-02T10:11:11.253Z,70.80
2018-10-02T10:13:39.726Z,70.60
2018-10-02T10:16:07.861Z,70.60
2018-10-02T10:18:36.063Z,70.70
2018-10-02T10:21:04.163Z,71.00
2018-10-02T10:23:34.469Z,71.60
2018-10-02T10:26:02.648Z,71.50
2018-10-02T10:28:30.949Z,72.00
2018-10-02T10:30:59.002Z,71.60
2018-10-02T10:33:27.231Z,71.70
2018-10-02T10:35:55.331Z,71.90
2018-10-02T10:38:23.478Z,72.20
2018-10-02T10:40:51.665Z,72.30
2018-10-02T10:43:19.820Z,72.60
2018-10-02T10:45:47.960Z,72.50
2018-10-02T10:48:16.104Z,72.30
2018-10-02T10:50:44.240Z,72.60
2018-10-02T10:53:12.366Z,72.90
2018-10-02T10:55:40.498Z,72.90
2018-10-02T10:58:08.654Z,72.20
2018-10-02T11:00:36.785Z,71.60
2018-10-02T11:03:05.134Z,71.00
2018-10-02T11:05:33.148Z,71.20
2018-10-02T11:08:01.300Z,71.30
2018-10-02T11:10:29.471Z,71.50
2018-10-02T11:12:57.605Z,71.60
2018-10-02T11:15:28.627Z,72.00
2018-10-02T11:17:56.854Z,73.00
2018-10-02T11:20:26.819Z,73.90
2018-10-02T11:22:55.461Z,74.80
2018-10-02T11:25:24.121Z,76.20
2018-10-02T11:27:52.102Z,77.70
2018-10-02T11:30:20.267Z,77.80
2018-10-02T11:32:48.436Z,78.20
2018-10-02T11:35:16.602Z,78.80
2018-10-02T11:37:45.067Z,79.20
2018-10-02T11:40:13.226Z,80.00
2018-10-02T11:42:41.614Z,81.50
2018-10-02T11:45:09.902Z,81.80
2018-10-02T11:47:38.037Z,82.00
2018-10-02T11:50:06.230Z,82.70
2018-10-02T11:52:34.442Z,83.10
2018-10-02T11:55:02.553Z,82.40
2018-10-02T11:57:30.807Z,82.80
2018-10-02T11:59:58.902Z,82.50
2018-10-02T12:02:27.047Z,81.50
2018-10-02T12:04:55.172Z,81.50
2018-10-02T12:07:23.310Z,83.10
2018-10-02T12:09:51.454Z,83.50
2018-10-02T12:12:19.594Z,83.90
2018-10-02T12:14:47.774Z,83.70
2018-10-02T12:17:15.879Z,82.80
2018-10-02T12:19:44.224Z,83.70
2018-10-02T12:22:12.180Z,83.30
2018-10-02T12:24:40.292Z,84.20
2018-10-02T12:27:08.446Z,84.00
2018-10-02T12:29:36.538Z,83.30
2018-10-02T12:32:04.662Z,83.20
2018-10-02T12:34:32.806Z,83.80
2018-10-02T12:37:01.009Z,83.80
2018-10-02T12:39:29.254Z,83.50
2018-10-02T12:41:57.400Z,83.30
2018-10-02T12:44:25.547Z,83.50
2018-10-02T12:46:53.895Z,83.30
2018-10-02T12:49:21.996Z,83.00
2018-10-02T12:51:50.146Z,83.70
2018-10-02T12:54:18.372Z,83.90
2018-10-02T12:56:46.562Z,84.10
2018-10-02T12:59:14.792Z,84.60
2018-10-02T13:01:43.100Z,85.00
2018-10-02T13:04:11.339Z,85.70
2018-10-02T13:06:39.512Z,86.10
2018-10-02T13:09:08.642Z,87.60
2018-10-02T13:11:36.999Z,87.80
2018-10-02T13:14:05.146Z,88.20
2018-10-02T13:16:33.522Z,89.70
2018-10-02T13:19:01.682Z,90.00
2018-10-02T13:21:29.848Z,90.00
2018-10-02T13:23:58.006Z,90.50
2018-10-02T13:26:26.272Z,90.90
2018-10-02T13:28:54.413Z,91.20
2018-10-02T13:31:23.847Z,92.00
2018-10-02T13:33:52.058Z,92.80
2018-10-02T13:36:20.202Z,92.40
2018-10-02T13:38:48.372Z,92.50
2018-10-02T13:41:16.682Z,92.80
2018-10-02T13:43:44.891Z,93.20
2018-10-02T13:46:13.131Z,93.90
2018-10-02T13:48:41.412Z,94.40
2018-10-02T13:51:10.704Z,94.40
2018-10-02T13:53:38.873Z,94.80
2018-10-02T13:56:07.093Z,94.90
2018-10-02T13:58:35.327Z,95.50
2018-10-02T14:01:04.197Z,95.50
2018-10-02T14:03:33.951Z,95.20
2018-10-02T14:06:02.832Z,95.90
2018-10-02T14:08:31.592Z,96.00
2018-10-02T14:10:59.747Z,96.00
2018-10-02T14:13:28.035Z,95.90
2018-10-02T14:15:56.241Z,96.10
2018-10-02T14:18:24.392Z,96.20
2018-10-02T14:20:52.560Z,96.50
2018-10-02T14:23:20.863Z,97.10
2018-10-02T14:25:49.026Z,97.20
2018-10-02T14:28:17.230Z,97.60
2018-10-02T14:30:45.470Z,97.40
2018-10-02T14:33:13.717Z,98.30
2018-10-02T14:35:41.826Z,98.60
2018-10-02T14:38:09.996Z,98.70
2018-10-02T14:40:38.312Z,98.80
2018-10-02T14:43:06.684Z,98.70
2018-10-02T14:45:34.872Z,98.70
2018-10-02T14:48:03.067Z,98.70
2018-10-02T14:50:31.246Z,98.60
2018-10-02T14:52:59.420Z,98.40
2018-10-02T14:55:28.242Z,98.10
2018-10-02T14:57:56.458Z,98.00
2018-10-02T15:00:24.625Z,97.90
2018-10-02T15:02:53.119Z,98.00
2018-10-02T15:05:21.348Z,98.10
2018-10-02T15:07:49.530Z,97.90
2018-10-02T15:10:17.787Z,97.80
2018-10-02T15:12:45.957Z,97.80
2018-10-02T15:15:14.101Z,98.30
2018-10-02T15:17:42.262Z,98.30
2018-10-02T15:20:10.460Z,98.60
2018-10-02T15:22:38.649Z,98.90
2018-10-02T15:25:06.997Z,99.00
2018-10-02T15:27:35.254Z,99.20
2018-10-02T15:30:03.402Z,99.80
2018-10-02T15:32:31.581Z,99.70
2018-10-02T15:34:59.769Z,99.90
2018-10-02T15:37:27.994Z,99.90
2018-10-02T15:39:56.231Z,99.90
2018-10-02T15:42:24.565Z,99.90
2018-10-02T15:44:52.807Z,99.90
2018-10-02T15:47:20.953Z,99.90
2018-10-02T15:49:49.140Z,99.90
2018-10-02T15:52:17.341Z,99.90
2018-10-02T15:54:45.630Z,99.90
2018-10-02T15:57:13.892Z,99.90
2018-10-02T15:59:42.118Z,99.90
2018-10-02T16:02:10.436Z,99.90
2018-10-02T16:04:38.611Z,99.90
2018-10-02T16:07:06.843Z,99.90
2018-10-02T16:09:36.188Z,99.90
2018-10-02T16:12:04.354Z,99.90
2018-10-02T16:14:32.674Z,99.90
2018-10-02T16:17:00.871Z,99.90
2018-10-02T16:19:29.088Z,99.90
2018-10-02T16:21:57.271Z,99.90
2018-10-02T16:24:25.791Z,99.90
2018-10-02T16:26:54.040Z,99.90
2018-10-02T16:29:22.289Z,99.90
2018-10-02T16:31:50.453Z,99.90
2018-10-02T16:34:18.969Z,99.90
2018-10-02T16:36:47.141Z,99.90
2018-10-02T16:39:15.400Z,99.90
2018-10-02T16:41:43.567Z,99.90
2018-10-02T16:44:11.737Z,99.90
2018-10-02T16:46:39.868Z,99.90
2018-10-02T16:49:08.052Z,99.90
2018-10-02T16:51:36.192Z,99.90
2018-10-02T16:54:04.357Z,99.90
2018-10-02T16:56:32.609Z,99.90
2018-10-02T16:59:00.769Z,99.90
2018-10-02T17:01:28.981Z,99.90
2018-10-02T17:03:57.210Z,99.90
2018-10-02T17:06:25.375Z,99.90
2018-10-02T17:08:53.559Z,99.90
2018-10-02T17:11:21.715Z,99.90
2018-10-02T17:13:50.062Z,99.90
2018-10-02T17:16:18.242Z,99.90
2018-10-02T17:18:46.404Z,99.90
2018-10-02T17:21:15.502Z,99.90
2018-10-02T17:23:43.716Z,99.90
2018-10-02T17:26:11.843Z,99.90
2018-10-02T17:28:40.004Z,99.90
2018-10-02T17:31:08.291Z,99.90
2018-10-02T17:33:36.463Z,99.90
2018-10-02T17:36:05.304Z,99.90
2018-10-02T17:38:33.998Z,99.90
2018-10-02T17:41:02.278Z,99.90
2018-10-02T17:43:30.577Z,99.90
2018-10-02T17:45:58.717Z,99.90
2018-10-02T17:48:26.902Z,99.90
2018-10-02T17:50:55.169Z,99.90
2018-10-02T17:53:24.134Z,99.90
2018-10-02T17:55:52.303Z,99.90
2018-10-02T17:58:20.583Z,99.90
2018-10-02T18:00:48.763Z,99.90
2018-10-02T18:03:16.957Z,99.90
2018-10-02T18:05:45.344Z,99.90
2018-10-02T18:08:13.465Z,99.90
2018-10-02T18:10:41.841Z,99.90
2018-10-02T18:13:10.032Z,99.90
2018-10-02T18:15:38.349Z,99.90
2018-10-02T18:18:06.499Z,99.90
2018-10-02T18:20:34.705Z,99.90
2018-10-02T18:23:02.904Z,99.90
2018-10-02T18:25:31.065Z,99.90
2018-10-02T18:27:59.251Z,99.90
2018-10-02T18:30:27.430Z,99.90
2018-10-02T18:32:55.669Z,99.90
2018-10-02T18:35:24.605Z,99.90
2018-10-02T18:37:52.877Z,99.90
2018-10-02T18:40:22.147Z,99.90
2018-10-02T18:42:50.363Z,99.90
2018-10-02T18:45:18.534Z,99.90
2018-10-02T18:47:46.657Z,99.90
2018-10-02T18:50:14.841Z,99.90
2018-10-02T18:52:43.140Z,99.90
2018-10-02T18:55:11.383Z,99.90
2018-10-02T18:57:39.547Z,99.90
2018-10-02T19:00:07.716Z,99.90
2018-10-02T19:02:35.969Z,99.90
2018-10-02T19:05:04.237Z,99.90
2018-10-02T19:07:32.511Z,99.90
2018-10-02T19:10:00.832Z,99.90
2018-10-02T19:12:29.101Z,99.90
2018-10-02T19:14:57.229Z,99.90
2018-10-02T19:17:25.439Z,99.90
2018-10-02T19:19:59.019Z,99.90
2018-10-02T19:22:27.179Z,99.90
2018-10-02T19:24:55.404Z,99.90
2018-10-02T19:27:23.611Z,99.90
2018-10-02T19:29:57.321Z,99.90
2018-10-02T19:32:25.537Z,99.90
2018-10-02T19:34:53.739Z,99.90
2018-10-02T19:37:27.536Z,99.90
2018-10-02T19:39:55.728Z,99.90
2018-10-02T19:42:23.975Z,99.90
2018-10-02T19:44:52.133Z,99.90
2018-10-02T19:47:20.406Z,99.90
2018-10-02T19:49:49.540Z,99.90
2018-10-02T19:52:18.402Z,99.90
2018-10-02T19:54:48.475Z,99.90
2018-10-02T19:57:17.951Z,99.90
2018-10-02T19:59:46.166Z,99.90
2018-10-02T20:02:14.391Z,99.90
2018-10-02T20:04:42.572Z,99.90
2018-10-02T20:07:10.804Z,99.90
2018-10-02T20:09:39.005Z,99.90
2018-10-02T20:12:07.237Z,99.90
2018-10-02T20:14:35.416Z,99.90
2018-10-02T20:17:03.691Z,99.90
2018-10-02T20:19:31.917Z,99.90
2018-10-02T20:22:00.181Z,99.90
2018-10-02T20:24:28.421Z,99.90
2018-10-02T20:26:57.053Z,99.90
2018-10-02T20:29:25.636Z,99.90
2018-10-02T20:31:53.901Z,99.90
2018-10-02T20:34:22.111Z,99.90
2018-10-02T20:36:51.069Z,99.90
2018-10-02T20:39:19.314Z,99.90
2018-10-02T20:41:47.658Z,99.90
2018-10-02T20:44:16.307Z,99.90
2018-10-02T20:46:44.528Z,99.90
2018-10-02T20:49:12.761Z,99.90
2018-10-02T20:51:40.962Z,99.90
2018-10-02T20:54:09.204Z,99.90
2018-10-02T20:56:37.413Z,99.90
2018-10-02T20:59:05.615Z,99.90
2018-10-02T21:01:33.747Z,99.90
2018-10-02T21:04:02.116Z,99.90
2018-10-02T21:06:30.329Z,99.90
2018-10-02T21:08:58.546Z,99.90
2018-10-02T21:11:26.812Z,99.90
2018-10-02T21:13:55.642Z,99.90
2018-10-02T21:16:25.151Z,99.90
2018-10-02T21:18:53.325Z,99.90
2018-10-02T21:21:21.726Z,99.90
2018-10-02T21:23:50.280Z,99.90
2018-10-02T21:26:18.488Z,99.90
2018-10-02T21:28:46.729Z,99.90
2018-10-02T21:31:14.875Z,99.90
2018-10-02T21:33:43.050Z,99.90
2018-10-02T21:36:11.203Z,99.90
2018-10-02T21:38:39.397Z,99.90
2018-10-02T21:41:07.570Z,99.90
2018-10-02T21:43:35.739Z,99.90
2018-10-02T21:46:03.920Z,99.90
2018-10-02T21:48:32.214Z,99.90
2018-10-02T21:51:00.392Z,99.90
2018-10-02T21:53:28.542Z,99.90
2018-10-02T21:55:56.679Z,99.90
2018-10-02T21:58:25.548Z,99.90
2018-10-02T22:00:57.950Z,99.90
2018-10-02T22:03:26.151Z,99.90
2018-10-02T22:05:54.539Z,99.90
2018-10-02T22:08:22.698Z,99.90
2018-10-02T22:10:51.997Z,99.90
2018-10-02T22:13:20.459Z,99.90
2018-10-02T22:15:48.681Z,99.90
2018-10-02T22:18:16.804Z,99.90
2018-10-02T22:20:44.979Z,99.90
2018-10-02T22:23:14.369Z,99.90
2018-10-02T22:25:42.658Z,99.90
2018-10-02T22:28:10.851Z,99.90
2018-10-02T22:30:39.031Z,99.90
2018-10-02T22:33:07.221Z,99.90
2018-10-02T22:35:35.362Z,99.90
2018-10-02T22:38:03.459Z,99.90
2018-10-02T22:40:32.853Z,99.90
2018-10-02T22:43:00.979Z,99.90
2018-10-02T22:45:29.691Z,99.90
2018-10-02T22:47:58.667Z,99.90
2018-10-02T22:50:26.822Z,99.90
2018-10-02T22:52:54.976Z,99.90
2018-10-02T22:55:23.133Z,99.90
2018-10-02T22:57:51.293Z,99.90
2018-10-02T23:00:19.520Z,99.80
2018-10-02T23:02:47.661Z,99.70
2018-10-02T23:05:15.783Z,99.60
2018-10-02T23:07:43.871Z,99.40
2018-10-02T23:10:12.001Z,98.80
2018-10-02T23:12:40.112Z,99.20
2018-10-02T23:15:08.247Z,99.00
2018-10-02T23:17:36.336Z,99.10
2018-10-02T23:20:04.626Z,98.90
2018-10-02T23:22:33.372Z,98.90
2018-10-02T23:25:01.598Z,98.90
2018-10-02T23:27:29.768Z,98.90
2018-10-02T23:29:57.928Z,99.00
2018-10-02T23:32:26.159Z,98.80
2018-10-02T23:34:54.304Z,98.70
2018-10-02T23:37:22.474Z,98.40
2018-10-02T23:39:50.632Z,98.60
2018-10-02T23:42:18.794Z,98.50
2018-10-02T23:44:46.959Z,98.50
2018-10-02T23:47:15.128Z,98.50
2018-10-02T23:49:43.326Z,98.60
2018-10-02T23:52:12.155Z,98.40
2018-10-02T23:54:40.418Z,98.30
2018-10-02T23:57:08.568Z,98.20
2018-10-02T23:59:38.062Z,98.30
